createdAt,value
2022-11-12T00:01:21.613Z,9.40
2022-11-12T00:06:21.561Z,11.00
2022-11-12T00:11:21.523Z,8.00
2022-11-12T00:16:21.471Z,8.30
2022-11-12T00:21:21.571Z,6.90
2022-11-12T00:26:21.462Z,7.90
2022-11-12T00:31:21.299Z,9.10
2022-11-12T00:36:21.224Z,7.40
2022-11-12T00:41:21.194Z,11.40
2022-11-12T00:46:21.114Z,7.20
2022-11-12T00:51:21.144Z,6.80
2022-11-12T00:56:21.041Z,9.60
2022-11-12T01:01:21.179Z,7.20
2022-11-12T01:06:21.062Z,7.20
2022-11-12T01:11:20.859Z,6.40
2022-11-12T01:16:20.797Z,10.30
2022-11-12T01:21:20.771Z,7.60
2022-11-12T01:26:20.685Z,6.00
2022-11-12T01:31:20.662Z,8.40
2022-11-12T01:36:20.679Z,11.00
2022-11-12T01:41:20.670Z,8.60
2022-11-12T01:46:20.611Z,10.00
2022-11-12T01:51:20.565Z,8.90
2022-11-12T01:56:20.352Z,10.60
2022-11-12T02:01:20.333Z,8.40
2022-11-12T02:06:20.327Z,7.60
2022-11-12T02:11:20.265Z,11.20
2022-11-12T02:16:20.139Z,6.40
2022-11-12T02:21:20.273Z,9.30
2022-11-12T02:26:20.230Z,7.70
2022-11-12T02:31:21.161Z,8.60
2022-11-12T02:36:19.948Z,10.30
2022-11-12T02:41:19.883Z,7.20
2022-11-12T02:46:19.820Z,8.40
2022-11-12T02:51:19.778Z,6.90
2022-11-12T02:56:19.884Z,8.50
2022-11-12T03:01:19.842Z,11.30
2022-11-12T03:06:19.729Z,6.30
2022-11-12T03:11:19.551Z,12.70
2022-11-12T03:16:19.517Z,8.20
2022-11-12T03:21:19.448Z,8.40
2022-11-12T03:26:19.407Z,12.60
2022-11-12T03:31:19.323Z,7.80
2022-11-12T03:36:19.273Z,8.10
2022-11-12T03:41:19.399Z,11.20
2022-11-12T03:46:19.352Z,10.00
2022-11-12T03:51:19.285Z,8.10
2022-11-12T03:56:19.066Z,8.80
2022-11-12T04:01:19.099Z,11.00
2022-11-12T04:06:18.956Z,8.50
2022-11-12T04:11:19.094Z,10.80
2022-11-12T04:16:18.984Z,9.70
2022-11-12T04:21:19.481Z,13.80
2022-11-12T04:26:20.201Z,7.40
2022-11-12T04:31:20.028Z,9.40
2022-11-12T04:36:26.109Z,10.80
2022-11-12T04:41:20.914Z,8.90
2022-11-12T04:46:21.487Z,7.80
2022-11-12T04:51:18.853Z,10.00
2022-11-12T04:56:22.731Z,7.00
2022-11-12T05:01:18.605Z,9.80
2022-11-12T05:06:18.945Z,8.30
2022-11-12T05:11:18.936Z,11.60
2022-11-12T05:16:55.260Z,8.90
2022-11-12T05:21:19.631Z,7.90
2022-11-12T05:26:23.719Z,8.20
2022-11-12T05:31:19.034Z,7.40
2022-11-12T05:36:24.612Z,7.70
2022-11-12T05:41:20.379Z,8.30
2022-11-12T05:46:19.343Z,10.50
2022-11-12T05:51:27.382Z,9.70
2022-11-12T05:56:41.468Z,8.70
2022-11-12T06:01:19.783Z,9.50
2022-11-12T06:06:20.099Z,10.10
2022-11-12T06:11:20.204Z,11.30
2022-11-12T06:16:17.577Z,10.20
2022-11-12T06:21:17.781Z,6.60
2022-11-12T06:26:17.538Z,8.40
2022-11-12T06:31:17.568Z,7.90
2022-11-12T06:36:17.462Z,7.50
2022-11-12T06:42:36.760Z,9.60
2022-11-12T06:47:50.795Z,10.10
2022-11-12T06:52:35.285Z,10.20
2022-11-12T06:57:35.448Z,7.70
2022-11-12T07:02:36.291Z,8.10
2022-11-12T07:07:35.333Z,8.40
2022-11-12T07:12:35.095Z,7.50
2022-11-12T07:17:35.078Z,10.40
2022-11-12T07:22:35.146Z,9.10
2022-11-12T07:27:34.988Z,8.90
2022-11-12T07:32:40.113Z,7.10
2022-11-12T07:37:35.861Z,10.10
2022-11-12T07:42:34.937Z,10.90
2022-11-12T07:47:35.889Z,7.80
2022-11-12T07:52:34.730Z,11.30
2022-11-12T07:57:34.659Z,12.10
2022-11-12T08:02:34.754Z,22.60
2022-11-12T08:07:34.773Z,15.00
2022-11-12T08:12:34.563Z,14.60
2022-11-12T08:17:34.416Z,11.20
2022-11-12T08:22:34.418Z,9.90
2022-11-12T08:27:34.367Z,8.80
2022-11-12T08:32:34.883Z,7.90
2022-11-12T08:37:34.278Z,6.30
2022-11-12T08:42:34.297Z,8.90
2022-11-12T08:47:34.467Z,7.40
2022-11-12T08:52:35.287Z,7.50
2022-11-12T08:57:35.082Z,7.00
2022-11-12T09:02:34.721Z,6.00
2022-11-12T09:07:49.542Z,5.10
2022-11-12T09:12:34.792Z,4.50
2022-11-12T09:17:33.863Z,6.50
2022-11-12T09:22:33.906Z,8.70
2022-11-12T09:27:34.844Z,4.40
2022-11-12T09:32:33.625Z,8.50
2022-11-12T09:37:33.773Z,6.00
2022-11-12T09:42:34.702Z,4.90
2022-11-12T09:47:33.461Z,5.20
2022-11-12T09:52:33.403Z,5.30
2022-11-12T09:57:33.346Z,3.70
2022-11-12T10:02:33.284Z,3.40
2022-11-12T10:07:33.261Z,4.50
2022-11-12T10:12:33.167Z,5.30
2022-11-12T10:17:33.121Z,3.30
2022-11-12T10:22:41.903Z,4.80
2022-11-12T10:27:32.980Z,4.40
2022-11-12T10:32:33.004Z,4.00
2022-11-12T10:37:32.932Z,4.00
2022-11-12T10:42:32.799Z,8.20
2022-11-12T10:47:32.730Z,3.20
2022-11-12T10:52:32.713Z,4.70
2022-11-12T10:57:32.699Z,5.10
2022-11-12T11:02:32.569Z,6.10
2022-11-12T11:07:32.597Z,4.50
2022-11-12T11:12:32.461Z,10.10
2022-11-12T11:17:32.543Z,7.10
2022-11-12T11:22:32.367Z,6.30
2022-11-12T11:27:32.514Z,4.50
2022-11-12T11:32:37.236Z,5.20
2022-11-12T11:37:33.203Z,5.40
2022-11-12T11:42:32.243Z,4.50
2022-11-12T11:47:50.507Z,4.70
2022-11-12T11:52:33.022Z,3.10
2022-11-12T11:57:31.979Z,5.20
2022-11-12T12:02:32.002Z,4.60
2022-11-12T12:07:31.947Z,6.50
2022-11-12T12:12:31.883Z,5.00
2022-11-12T12:17:32.844Z,3.50
2022-11-12T12:22:31.699Z,3.50
2022-11-12T12:27:31.635Z,3.70
2022-11-12T12:32:31.584Z,3.60
2022-11-12T12:37:31.575Z,3.90
2022-11-12T12:42:31.508Z,3.60
2022-11-12T12:47:31.460Z,6.70
2022-11-12T12:52:31.385Z,3.70
2022-11-12T12:57:31.349Z,3.20
2022-11-12T13:02:31.272Z,2.70
2022-11-12T13:07:31.250Z,4.20
2022-11-12T13:12:31.146Z,4.90
2022-11-12T13:17:31.210Z,3.20
2022-11-12T13:22:31.130Z,4.30
2022-11-12T13:27:31.057Z,3.60
2022-11-12T13:32:31.005Z,3.60
2022-11-12T13:37:30.899Z,5.20
2022-11-12T13:42:30.837Z,3.00
2022-11-12T13:47:30.792Z,3.30
2022-11-12T13:52:30.767Z,4.80
2022-11-12T13:57:30.759Z,2.90
2022-11-12T14:02:30.650Z,5.00
2022-11-12T14:07:30.600Z,6.00
2022-11-12T14:12:30.525Z,4.10
2022-11-12T14:17:30.454Z,7.10
2022-11-12T14:22:30.393Z,3.30
2022-11-12T14:27:30.358Z,5.70
2022-11-12T14:32:30.269Z,5.30
2022-11-12T14:37:30.335Z,3.60
2022-11-12T14:42:30.268Z,4.80
2022-11-12T14:47:30.219Z,4.30
2022-11-12T14:52:30.049Z,6.10
2022-11-12T14:57:30.000Z,4.70
2022-11-12T15:02:42.632Z,10.90
2022-11-12T15:07:30.917Z,18.50
2022-11-12T15:12:29.839Z,6.70
2022-11-12T15:17:29.792Z,4.60
2022-11-12T15:22:29.742Z,5.80
2022-11-12T15:27:29.719Z,4.90
2022-11-12T15:32:29.669Z,14.70
2022-11-12T15:37:29.582Z,5.10
2022-11-12T15:42:29.561Z,8.80
2022-11-12T15:47:29.508Z,8.00
2022-11-12T15:52:29.440Z,5.50
2022-11-12T15:57:29.393Z,10.30
2022-11-12T16:02:29.297Z,9.60
2022-11-12T16:07:29.280Z,6.20
2022-11-12T16:12:29.283Z,5.70
2022-11-12T16:17:29.218Z,7.70
2022-11-12T16:22:38.050Z,12.00
2022-11-12T16:27:29.065Z,8.50
2022-11-12T16:32:29.003Z,11.50
2022-11-12T16:37:30.039Z,11.60
2022-11-12T16:42:28.900Z,10.50
2022-11-12T16:47:28.887Z,37.50
2022-11-12T16:52:28.787Z,13.40
2022-11-12T16:57:28.841Z,19.80
2022-11-12T17:02:28.704Z,15.40
2022-11-12T17:07:28.641Z,20.50
2022-11-12T17:12:28.601Z,10.70
2022-11-12T17:17:28.548Z,9.20
2022-11-12T17:22:28.521Z,13.10
2022-11-12T17:27:28.525Z,17.00
2022-11-12T17:32:28.362Z,16.40
2022-11-12T17:37:28.282Z,44.10
2022-11-12T17:42:28.332Z,35.10
2022-11-12T17:47:28.181Z,14.10
2022-11-12T17:52:28.246Z,13.90
2022-11-12T17:57:28.079Z,24.70
2022-11-12T18:02:28.018Z,29.50
2022-11-12T18:07:27.984Z,70.60
2022-11-12T18:12:27.921Z,72.90
2022-11-12T18:17:27.967Z,29.00
2022-11-12T18:22:27.901Z,51.20
2022-11-12T18:27:27.829Z,49.50
2022-11-12T18:32:27.770Z,91.90
2022-11-12T18:37:27.699Z,47.50
2022-11-12T18:42:27.597Z,25.30
2022-11-12T18:47:27.513Z,37.80
2022-11-12T18:52:27.461Z,37.70
2022-11-12T18:57:27.525Z,44.70
2022-11-12T19:02:27.447Z,33.60
2022-11-12T19:07:27.334Z,30.90
2022-11-12T19:12:27.289Z,25.90
2022-11-12T19:17:31.056Z,31.70
2022-11-12T19:22:27.226Z,73.20
2022-11-12T19:27:27.101Z,61.50
2022-11-12T19:32:27.046Z,19.50
2022-11-12T19:37:33.863Z,18.10
2022-11-12T19:42:28.010Z,47.60
2022-11-12T19:47:26.894Z,9.70
2022-11-12T19:52:26.904Z,9.60
2022-11-12T19:57:26.777Z,11.80
2022-11-12T20:02:26.825Z,8.40
2022-11-12T20:07:26.690Z,9.80
2022-11-12T20:12:26.703Z,13.90
2022-11-12T20:17:26.583Z,9.60
2022-11-12T20:22:31.641Z,16.90
2022-11-12T20:27:28.536Z,20.90
2022-11-12T20:32:26.431Z,20.20
2022-11-12T20:37:26.440Z,29.20
2022-11-12T20:42:26.507Z,23.30
2022-11-12T20:47:26.537Z,31.80
2022-11-12T20:52:27.968Z,17.30
2022-11-12T20:57:28.366Z,20.40
2022-11-12T21:03:57.149Z,16.50
2022-11-12T21:09:02.990Z,16.40
2022-11-12T21:13:58.684Z,9.80
2022-11-12T21:18:56.400Z,10.90
2022-11-12T21:23:58.347Z,22.60
2022-11-12T21:28:57.802Z,17.20
2022-11-12T21:33:56.722Z,18.10
2022-11-12T21:38:56.219Z,15.80
2022-11-12T21:43:56.326Z,12.50
2022-11-12T21:49:03.176Z,6.80
2022-11-12T21:53:55.885Z,5.90
2022-11-12T21:58:58.254Z,7.90
2022-11-12T22:03:55.693Z,7.00
2022-11-12T22:08:55.986Z,6.20
2022-11-12T22:13:58.922Z,5.80
2022-11-12T22:18:59.704Z,7.10
2022-11-12T22:24:03.944Z,9.10
2022-11-12T22:28:55.313Z,15.30
2022-11-12T22:33:55.249Z,22.80
2022-11-12T22:38:55.175Z,10.60
2022-11-12T22:43:55.136Z,11.90
2022-11-12T22:48:55.206Z,8.50
2022-11-12T22:53:55.135Z,9.20
2022-11-12T22:58:55.064Z,9.30
2022-11-12T23:03:55.024Z,8.50
2022-11-12T23:08:54.847Z,7.80
2022-11-12T23:13:54.795Z,6.90
2022-11-12T23:18:54.744Z,10.20
2022-11-12T23:23:54.683Z,6.60
2022-11-12T23:28:54.641Z,8.90
2022-11-12T23:33:54.749Z,7.00
2022-11-12T23:38:54.687Z,8.80
2022-11-12T23:43:54.541Z,6.60
2022-11-12T23:48:54.414Z,10.60
2022-11-12T23:53:54.349Z,6.80
2022-11-12T23:58:54.312Z,11.50
